sensor_id;sensor_type;location;lat;lon;timestamp;P1;durP1;ratioP1;P2;durP2;ratioP2
2854;SDS011;1435;49.472;10.940;2023-07-08T00:00:51;5.70;;;5.20;;
2854;SDS011;1435;49.472;10.940;2023-07-08T00:05:55;7.63;;;6.90;;
2854;SDS011;1435;49.472;10.940;2023-07-08T00:10:57;6.57;;;6.07;;
2854;SDS011;1435;49.472;10.940;2023-07-08T00:15:59;6.00;;;5.47;;
2854;SDS011;1435;49.472;10.940;2023-07-08T00:21:02;6.57;;;5.70;;
2854;SDS011;1435;49.472;10.940;2023-07-08T00:26:09;6.50;;;5.53;;
2854;SDS011;1435;49.472;10.940;2023-07-08T00:31:14;5.70;;;5.10;;
2854;SDS011;1435;49.472;10.940;2023-07-08T00:36:17;6.37;;;5.80;;
2854;SDS011;1435;49.472;10.940;2023-07-08T00:41:20;6.30;;;5.70;;
2854;SDS011;1435;49.472;10.940;2023-07-08T00:46:31;6.90;;;5.27;;
2854;SDS011;1435;49.472;10.940;2023-07-08T00:51:41;6.40;;;5.47;;
2854;SDS011;1435;49.472;10.940;2023-07-08T00:56:44;7.00;;;6.20;;
2854;SDS011;1435;49.472;10.940;2023-07-08T01:01:50;8.10;;;7.30;;
2854;SDS011;1435;49.472;10.940;2023-07-08T01:06:54;6.43;;;5.87;;
2854;SDS011;1435;49.472;10.940;2023-07-08T01:12:00;7.00;;;6.27;;
2854;SDS011;1435;49.472;10.940;2023-07-08T01:17:04;7.77;;;6.73;;
2854;SDS011;1435;49.472;10.940;2023-07-08T01:22:08;7.30;;;6.47;;
2854;SDS011;1435;49.472;10.940;2023-07-08T01:27:11;6.20;;;5.70;;
2854;SDS011;1435;49.472;10.940;2023-07-08T01:32:16;6.70;;;6.07;;
2854;SDS011;1435;49.472;10.940;2023-07-08T01:37:20;7.20;;;6.60;;
2854;SDS011;1435;49.472;10.940;2023-07-08T01:42:22;7.10;;;6.20;;
2854;SDS011;1435;49.472;10.940;2023-07-08T01:47:23;7.87;;;7.17;;
2854;SDS011;1435;49.472;10.940;2023-07-08T01:52:26;8.47;;;7.07;;
2854;SDS011;1435;49.472;10.940;2023-07-08T01:57:28;7.70;;;7.00;;
2854;SDS011;1435;49.472;10.940;2023-07-08T02:02:30;7.50;;;6.90;;
2854;SDS011;1435;49.472;10.940;2023-07-08T02:07:33;6.90;;;6.33;;
2854;SDS011;1435;49.472;10.940;2023-07-08T02:12:35;7.13;;;6.53;;
2854;SDS011;1435;49.472;10.940;2023-07-08T02:17:36;7.87;;;7.10;;
2854;SDS011;1435;49.472;10.940;2023-07-08T02:22:39;10.90;;;6.80;;
2854;SDS011;1435;49.472;10.940;2023-07-08T02:27:41;7.77;;;7.07;;
2854;SDS011;1435;49.472;10.940;2023-07-08T02:32:43;7.73;;;6.80;;
2854;SDS011;1435;49.472;10.940;2023-07-08T02:37:50;6.50;;;5.90;;
2854;SDS011;1435;49.472;10.940;2023-07-08T02:42:51;10.07;;;6.80;;
2854;SDS011;1435;49.472;10.940;2023-07-08T02:47:53;7.20;;;6.60;;
2854;SDS011;1435;49.472;10.940;2023-07-08T02:52:56;7.50;;;6.70;;
2854;SDS011;1435;49.472;10.940;2023-07-08T02:57:58;7.40;;;6.70;;
2854;SDS011;1435;49.472;10.940;2023-07-08T03:02:59;7.30;;;6.60;;
2854;SDS011;1435;49.472;10.940;2023-07-08T03:08:03;7.37;;;6.67;;
2854;SDS011;1435;49.472;10.940;2023-07-08T03:13:06;7.73;;;7.00;;
2854;SDS011;1435;49.472;10.940;2023-07-08T03:18:07;8.17;;;7.33;;
2854;SDS011;1435;49.472;10.940;2023-07-08T03:23:10;11.40;;;7.93;;
2854;SDS011;1435;49.472;10.940;2023-07-08T03:28:12;7.80;;;7.17;;
2854;SDS011;1435;49.472;10.940;2023-07-08T03:33:15;8.17;;;7.47;;
2854;SDS011;1435;49.472;10.940;2023-07-08T03:38:18;8.90;;;7.43;;
2854;SDS011;1435;49.472;10.940;2023-07-08T03:43:19;8.53;;;7.63;;
2854;SDS011;1435;49.472;10.940;2023-07-08T03:48:21;9.67;;;8.60;;
2854;SDS011;1435;49.472;10.940;2023-07-08T03:53:24;9.97;;;8.20;;
2854;SDS011;1435;49.472;10.940;2023-07-08T03:58:25;8.83;;;7.20;;
2854;SDS011;1435;49.472;10.940;2023-07-08T04:03:27;9.20;;;8.10;;
2854;SDS011;1435;49.472;10.940;2023-07-08T04:08:30;9.20;;;7.40;;
2854;SDS011;1435;49.472;10.940;2023-07-08T04:13:32;9.30;;;8.37;;
2854;SDS011;1435;49.472;10.940;2023-07-08T04:18:34;8.40;;;7.33;;
2854;SDS011;1435;49.472;10.940;2023-07-08T04:23:38;9.70;;;8.47;;
2854;SDS011;1435;49.472;10.940;2023-07-08T04:28:41;13.40;;;8.23;;
2854;SDS011;1435;49.472;10.940;2023-07-08T04:33:43;11.53;;;7.73;;
2854;SDS011;1435;49.472;10.940;2023-07-08T04:38:46;8.60;;;7.70;;
2854;SDS011;1435;49.472;10.940;2023-07-08T04:43:48;8.13;;;7.43;;
2854;SDS011;1435;49.472;10.940;2023-07-08T04:48:52;10.80;;;7.90;;
2854;SDS011;1435;49.472;10.940;2023-07-08T04:53:57;9.03;;;8.23;;
2854;SDS011;1435;49.472;10.940;2023-07-08T04:58:58;8.80;;;8.00;;
2854;SDS011;1435;49.472;10.940;2023-07-08T05:04:01;8.07;;;7.37;;
2854;SDS011;1435;49.472;10.940;2023-07-08T05:09:06;8.23;;;7.43;;
2854;SDS011;1435;49.472;10.940;2023-07-08T05:14:08;8.50;;;7.67;;
2854;SDS011;1435;49.472;10.940;2023-07-08T05:19:09;9.03;;;7.70;;
2854;SDS011;1435;49.472;10.940;2023-07-08T05:24:12;7.80;;;7.13;;
2854;SDS011;1435;49.472;10.940;2023-07-08T05:29:14;8.20;;;7.00;;
2854;SDS011;1435;49.472;10.940;2023-07-08T05:34:16;10.20;;;7.63;;
2854;SDS011;1435;49.472;10.940;2023-07-08T05:39:19;7.90;;;6.00;;
2854;SDS011;1435;49.472;10.940;2023-07-08T05:44:20;6.73;;;6.10;;
2854;SDS011;1435;49.472;10.940;2023-07-08T05:49:22;8.40;;;6.40;;
2854;SDS011;1435;49.472;10.940;2023-07-08T05:54:25;8.53;;;7.20;;
2854;SDS011;1435;49.472;10.940;2023-07-08T05:59:27;7.53;;;6.80;;
2854;SDS011;1435;49.472;10.940;2023-07-08T06:04:29;8.57;;;7.40;;
2854;SDS011;1435;49.472;10.940;2023-07-08T06:09:32;6.73;;;6.13;;
2854;SDS011;1435;49.472;10.940;2023-07-08T06:14:34;7.53;;;6.83;;
2854;SDS011;1435;49.472;10.940;2023-07-08T06:19:35;10.27;;;6.27;;
2854;SDS011;1435;49.472;10.940;2023-07-08T06:24:39;7.67;;;6.70;;
2854;SDS011;1435;49.472;10.940;2023-07-08T06:29:40;6.27;;;5.10;;
2854;SDS011;1435;49.472;10.940;2023-07-08T06:34:43;6.03;;;5.43;;
2854;SDS011;1435;49.472;10.940;2023-07-08T06:39:46;7.90;;;5.70;;
2854;SDS011;1435;49.472;10.940;2023-07-08T06:44:48;6.93;;;6.10;;
2854;SDS011;1435;49.472;10.940;2023-07-08T06:49:51;10.63;;;6.60;;
2854;SDS011;1435;49.472;10.940;2023-07-08T06:54:54;7.73;;;7.00;;
2854;SDS011;1435;49.472;10.940;2023-07-08T06:59:56;7.67;;;6.30;;
2854;SDS011;1435;49.472;10.940;2023-07-08T07:04:58;6.63;;;6.03;;
2854;SDS011;1435;49.472;10.940;2023-07-08T07:10:01;10.33;;;6.40;;
2854;SDS011;1435;49.472;10.940;2023-07-08T07:15:03;6.60;;;5.83;;
2854;SDS011;1435;49.472;10.940;2023-07-08T07:20:06;6.53;;;5.33;;
2854;SDS011;1435;49.472;10.940;2023-07-08T07:25:10;6.30;;;5.37;;
2854;SDS011;1435;49.472;10.940;2023-07-08T07:30:12;6.13;;;5.37;;
2854;SDS011;1435;49.472;10.940;2023-07-08T07:35:15;5.90;;;4.70;;
2854;SDS011;1435;49.472;10.940;2023-07-08T07:40:18;7.17;;;6.27;;
2854;SDS011;1435;49.472;10.940;2023-07-08T07:45:20;6.20;;;5.67;;
2854;SDS011;1435;49.472;10.940;2023-07-08T07:50:22;6.80;;;4.93;;
2854;SDS011;1435;49.472;10.940;2023-07-08T07:55:25;6.37;;;5.53;;
2854;SDS011;1435;49.472;10.940;2023-07-08T08:00:27;6.23;;;5.20;;
2854;SDS011;1435;49.472;10.940;2023-07-08T08:05:30;8.60;;;5.80;;
2854;SDS011;1435;49.472;10.940;2023-07-08T08:10:33;6.07;;;5.47;;
2854;SDS011;1435;49.472;10.940;2023-07-08T08:15:35;6.27;;;5.67;;
2854;SDS011;1435;49.472;10.940;2023-07-08T08:20:37;5.53;;;4.63;;
2854;SDS011;1435;49.472;10.940;2023-07-08T08:25:41;6.10;;;5.30;;
2854;SDS011;1435;49.472;10.940;2023-07-08T08:30:46;5.60;;;5.00;;
2854;SDS011;1435;49.472;10.940;2023-07-08T08:35:48;5.70;;;4.60;;
2854;SDS011;1435;49.472;10.940;2023-07-08T08:40:51;5.17;;;4.73;;
2854;SDS011;1435;49.472;10.940;2023-07-08T08:45:54;6.17;;;4.90;;
2854;SDS011;1435;49.472;10.940;2023-07-08T08:51:00;5.23;;;4.73;;
2854;SDS011;1435;49.472;10.940;2023-07-08T08:56:11;7.27;;;5.70;;
2854;SDS011;1435;49.472;10.940;2023-07-08T09:01:23;5.50;;;4.90;;
2854;SDS011;1435;49.472;10.940;2023-07-08T09:06:26;4.93;;;4.37;;
2854;SDS011;1435;49.472;10.940;2023-07-08T09:16:55;5.23;;;4.60;;
2854;SDS011;1435;49.472;10.940;2023-07-08T09:22:06;5.67;;;4.90;;
2854;SDS011;1435;49.472;10.940;2023-07-08T09:27:15;5.80;;;4.83;;
2854;SDS011;1435;49.472;10.940;2023-07-08T09:32:18;4.97;;;4.40;;
2854;SDS011;1435;49.472;10.940;2023-07-08T09:37:22;4.73;;;4.30;;
2854;SDS011;1435;49.472;10.940;2023-07-08T09:42:29;5.00;;;4.50;;
2854;SDS011;1435;49.472;10.940;2023-07-08T09:47:35;5.00;;;4.47;;
2854;SDS011;1435;49.472;10.940;2023-07-08T09:52:40;4.60;;;4.20;;
2854;SDS011;1435;49.472;10.940;2023-07-08T09:57:44;5.10;;;4.60;;
2854;SDS011;1435;49.472;10.940;2023-07-08T10:02:49;4.63;;;4.23;;
2854;SDS011;1435;49.472;10.940;2023-07-08T10:07:55;5.03;;;4.53;;
2854;SDS011;1435;49.472;10.940;2023-07-08T10:13:00;6.50;;;4.83;;
2854;SDS011;1435;49.472;10.940;2023-07-08T10:18:04;5.13;;;4.60;;
2854;SDS011;1435;49.472;10.940;2023-07-08T10:23:14;5.30;;;4.80;;
2854;SDS011;1435;49.472;10.940;2023-07-08T10:28:28;5.00;;;4.50;;
2854;SDS011;1435;49.472;10.940;2023-07-08T10:33:38;5.47;;;4.97;;
2854;SDS011;1435;49.472;10.940;2023-07-08T10:39:20;5.37;;;4.87;;
2854;SDS011;1435;49.472;10.940;2023-07-08T10:44:41;5.40;;;4.53;;
2854;SDS011;1435;49.472;10.940;2023-07-08T10:49:52;6.07;;;5.47;;
2854;SDS011;1435;49.472;10.940;2023-07-08T10:55:11;6.67;;;4.90;;
2854;SDS011;1435;49.472;10.940;2023-07-08T11:00:23;7.47;;;5.40;;
2854;SDS011;1435;49.472;10.940;2023-07-08T11:05:31;6.10;;;4.40;;
2854;SDS011;1435;49.472;10.940;2023-07-08T11:10:43;5.80;;;5.27;;
2854;SDS011;1435;49.472;10.940;2023-07-08T11:15:52;7.33;;;5.30;;
2854;SDS011;1435;49.472;10.940;2023-07-08T11:20:59;5.10;;;4.60;;
2854;SDS011;1435;49.472;10.940;2023-07-08T11:26:09;5.90;;;4.50;;
2854;SDS011;1435;49.472;10.940;2023-07-08T11:31:28;5.70;;;5.20;;
2854;SDS011;1435;49.472;10.940;2023-07-08T11:36:34;5.33;;;4.93;;
2854;SDS011;1435;49.472;10.940;2023-07-08T11:41:36;4.17;;;3.87;;
2854;SDS011;1435;49.472;10.940;2023-07-08T11:46:39;5.57;;;4.93;;
2854;SDS011;1435;49.472;10.940;2023-07-08T11:51:54;4.83;;;4.33;;
2854;SDS011;1435;49.472;10.940;2023-07-08T11:56:59;5.30;;;4.80;;
2854;SDS011;1435;49.472;10.940;2023-07-08T12:02:11;4.80;;;4.30;;
2854;SDS011;1435;49.472;10.940;2023-07-08T12:07:16;5.30;;;4.80;;
2854;SDS011;1435;49.472;10.940;2023-07-08T12:12:22;8.47;;;5.20;;
2854;SDS011;1435;49.472;10.940;2023-07-08T12:17:30;5.40;;;4.10;;
2854;SDS011;1435;49.472;10.940;2023-07-08T12:22:32;6.43;;;5.30;;
2854;SDS011;1435;49.472;10.940;2023-07-08T12:27:34;5.73;;;4.87;;
2854;SDS011;1435;49.472;10.940;2023-07-08T12:32:37;5.03;;;4.63;;
2854;SDS011;1435;49.472;10.940;2023-07-08T12:37:40;5.10;;;4.63;;
2854;SDS011;1435;49.472;10.940;2023-07-08T12:42:42;5.70;;;5.10;;
2854;SDS011;1435;49.472;10.940;2023-07-08T12:47:45;5.30;;;4.80;;
2854;SDS011;1435;49.472;10.940;2023-07-08T12:52:48;7.20;;;5.20;;
2854;SDS011;1435;49.472;10.940;2023-07-08T12:57:50;5.00;;;4.50;;
2854;SDS011;1435;49.472;10.940;2023-07-08T13:02:56;6.80;;;5.70;;
2854;SDS011;1435;49.472;10.940;2023-07-08T13:07:59;6.13;;;5.20;;
2854;SDS011;1435;49.472;10.940;2023-07-08T13:13:02;7.07;;;4.80;;
2854;SDS011;1435;49.472;10.940;2023-07-08T13:18:10;5.17;;;4.57;;
2854;SDS011;1435;49.472;10.940;2023-07-08T13:23:16;4.70;;;4.30;;
2854;SDS011;1435;49.472;10.940;2023-07-08T13:28:19;5.77;;;5.27;;
2854;SDS011;1435;49.472;10.940;2023-07-08T13:33:30;5.30;;;4.80;;
2854;SDS011;1435;49.472;10.940;2023-07-08T13:38:33;6.37;;;5.40;;
2854;SDS011;1435;49.472;10.940;2023-07-08T13:43:38;5.80;;;5.20;;
2854;SDS011;1435;49.472;10.940;2023-07-08T13:48:42;5.60;;;4.90;;
2854;SDS011;1435;49.472;10.940;2023-07-08T13:53:45;5.63;;;5.13;;
2854;SDS011;1435;49.472;10.940;2023-07-08T13:58:49;5.40;;;4.60;;
2854;SDS011;1435;49.472;10.940;2023-07-08T14:03:54;5.40;;;4.90;;
2854;SDS011;1435;49.472;10.940;2023-07-08T14:08:58;5.50;;;4.80;;
2854;SDS011;1435;49.472;10.940;2023-07-08T14:14:05;6.03;;;5.07;;
2854;SDS011;1435;49.472;10.940;2023-07-08T14:19:11;6.87;;;5.20;;
2854;SDS011;1435;49.472;10.940;2023-07-08T14:24:16;5.17;;;4.67;;
2854;SDS011;1435;49.472;10.940;2023-07-08T14:29:18;5.50;;;5.00;;
2854;SDS011;1435;49.472;10.940;2023-07-08T14:34:22;5.00;;;4.50;;
2854;SDS011;1435;49.472;10.940;2023-07-08T14:39:26;6.30;;;5.10;;
2854;SDS011;1435;49.472;10.940;2023-07-08T14:44:30;5.80;;;5.30;;
2854;SDS011;1435;49.472;10.940;2023-07-08T14:49:35;6.40;;;5.80;;
2854;SDS011;1435;49.472;10.940;2023-07-08T14:54:37;5.50;;;4.93;;
2854;SDS011;1435;49.472;10.940;2023-07-08T14:59:39;6.20;;;5.07;;
2854;SDS011;1435;49.472;10.940;2023-07-08T15:04:42;6.37;;;4.60;;
2854;SDS011;1435;49.472;10.940;2023-07-08T15:09:44;8.43;;;6.30;;
2854;SDS011;1435;49.472;10.940;2023-07-08T15:14:45;5.70;;;4.83;;
2854;SDS011;1435;49.472;10.940;2023-07-08T15:19:48;5.03;;;4.47;;
2854;SDS011;1435;49.472;10.940;2023-07-08T15:24:50;5.67;;;5.07;;
2854;SDS011;1435;49.472;10.940;2023-07-08T15:29:52;6.10;;;4.60;;
2854;SDS011;1435;49.472;10.940;2023-07-08T15:34:56;5.37;;;4.87;;
2854;SDS011;1435;49.472;10.940;2023-07-08T15:39:58;5.90;;;5.20;;
2854;SDS011;1435;49.472;10.940;2023-07-08T15:45:00;7.30;;;5.60;;
2854;SDS011;1435;49.472;10.940;2023-07-08T15:50:04;5.97;;;5.47;;
2854;SDS011;1435;49.472;10.940;2023-07-08T15:55:11;5.60;;;4.77;;
2854;SDS011;1435;49.472;10.940;2023-07-08T16:00:17;6.30;;;5.70;;
2854;SDS011;1435;49.472;10.940;2023-07-08T16:05:22;7.30;;;5.40;;
2854;SDS011;1435;49.472;10.940;2023-07-08T16:10:24;5.23;;;4.73;;
2854;SDS011;1435;49.472;10.940;2023-07-08T16:15:28;5.73;;;5.23;;
2854;SDS011;1435;49.472;10.940;2023-07-08T16:20:34;5.73;;;5.23;;
2854;SDS011;1435;49.472;10.940;2023-07-08T16:25:36;6.10;;;5.50;;
2854;SDS011;1435;49.472;10.940;2023-07-08T16:30:40;6.03;;;5.00;;
2854;SDS011;1435;49.472;10.940;2023-07-08T16:35:43;6.33;;;5.73;;
2854;SDS011;1435;49.472;10.940;2023-07-08T16:40:45;5.50;;;5.00;;
2854;SDS011;1435;49.472;10.940;2023-07-08T16:45:47;6.37;;;5.57;;
2854;SDS011;1435;49.472;10.940;2023-07-08T16:50:51;5.90;;;5.30;;
2854;SDS011;1435;49.472;10.940;2023-07-08T16:55:53;6.17;;;5.63;;
2854;SDS011;1435;49.472;10.940;2023-07-08T17:00:55;6.00;;;5.50;;
2854;SDS011;1435;49.472;10.940;2023-07-08T17:05:58;5.37;;;4.87;;
2854;SDS011;1435;49.472;10.940;2023-07-08T17:10:59;6.00;;;5.50;;
2854;SDS011;1435;49.472;10.940;2023-07-08T17:16:01;5.87;;;5.37;;
2854;SDS011;1435;49.472;10.940;2023-07-08T17:21:08;6.73;;;5.20;;
2854;SDS011;1435;49.472;10.940;2023-07-08T17:26:15;5.83;;;5.33;;
2854;SDS011;1435;49.472;10.940;2023-07-08T17:31:17;6.20;;;5.63;;
2854;SDS011;1435;49.472;10.940;2023-07-08T17:36:23;6.33;;;5.53;;
2854;SDS011;1435;49.472;10.940;2023-07-08T17:41:29;6.93;;;5.43;;
2854;SDS011;1435;49.472;10.940;2023-07-08T17:46:31;5.60;;;4.97;;
2854;SDS011;1435;49.472;10.940;2023-07-08T17:51:34;6.33;;;5.30;;
2854;SDS011;1435;49.472;10.940;2023-07-08T17:56:37;6.73;;;6.13;;
2854;SDS011;1435;49.472;10.940;2023-07-08T18:01:40;5.73;;;5.20;;
2854;SDS011;1435;49.472;10.940;2023-07-08T18:06:44;5.97;;;5.47;;
2854;SDS011;1435;49.472;10.940;2023-07-08T18:11:46;7.33;;;6.17;;
2854;SDS011;1435;49.472;10.940;2023-07-08T18:16:49;5.87;;;5.30;;
2854;SDS011;1435;49.472;10.940;2023-07-08T18:21:53;5.90;;;5.40;;
2854;SDS011;1435;49.472;10.940;2023-07-08T18:26:55;5.83;;;5.30;;
2854;SDS011;1435;49.472;10.940;2023-07-08T18:31:57;7.40;;;6.10;;
2854;SDS011;1435;49.472;10.940;2023-07-08T18:37:00;6.30;;;5.70;;
2854;SDS011;1435;49.472;10.940;2023-07-08T18:42:03;6.50;;;5.57;;
2854;SDS011;1435;49.472;10.940;2023-07-08T18:47:07;6.67;;;6.07;;
2854;SDS011;1435;49.472;10.940;2023-07-08T18:52:12;7.60;;;6.30;;
2854;SDS011;1435;49.472;10.940;2023-07-08T18:57:16;6.50;;;5.90;;
2854;SDS011;1435;49.472;10.940;2023-07-08T19:02:30;6.47;;;5.93;;
2854;SDS011;1435;49.472;10.940;2023-07-08T19:07:35;7.00;;;6.30;;
2854;SDS011;1435;49.472;10.940;2023-07-08T19:12:37;5.60;;;5.10;;
2854;SDS011;1435;49.472;10.940;2023-07-08T19:17:39;7.57;;;6.60;;
2854;SDS011;1435;49.472;10.940;2023-07-08T19:22:42;7.30;;;6.60;;
2854;SDS011;1435;49.472;10.940;2023-07-08T19:27:44;7.33;;;6.63;;
2854;SDS011;1435;49.472;10.940;2023-07-08T19:32:47;9.10;;;6.67;;
2854;SDS011;1435;49.472;10.940;2023-07-08T19:37:53;7.63;;;6.00;;
2854;SDS011;1435;49.472;10.940;2023-07-08T19:42:55;7.60;;;6.00;;
2854;SDS011;1435;49.472;10.940;2023-07-08T19:47:58;8.17;;;5.97;;
2854;SDS011;1435;49.472;10.940;2023-07-08T19:53:01;6.80;;;6.13;;
2854;SDS011;1435;49.472;10.940;2023-07-08T19:58:04;7.77;;;6.87;;
2854;SDS011;1435;49.472;10.940;2023-07-08T20:03:12;7.83;;;6.47;;
2854;SDS011;1435;49.472;10.940;2023-07-08T20:08:22;11.00;;;6.40;;
2854;SDS011;1435;49.472;10.940;2023-07-08T20:13:29;7.70;;;6.30;;
2854;SDS011;1435;49.472;10.940;2023-07-08T20:18:32;6.90;;;6.27;;
2854;SDS011;1435;49.472;10.940;2023-07-08T20:23:35;7.37;;;6.63;;
2854;SDS011;1435;49.472;10.940;2023-07-08T20:28:38;7.93;;;7.13;;
2854;SDS011;1435;49.472;10.940;2023-07-08T20:33:39;8.13;;;7.07;;
2854;SDS011;1435;49.472;10.940;2023-07-08T20:38:43;6.80;;;6.20;;
2854;SDS011;1435;49.472;10.940;2023-07-08T20:43:44;7.17;;;6.57;;
2854;SDS011;1435;49.472;10.940;2023-07-08T20:48:46;8.57;;;6.97;;
2854;SDS011;1435;49.472;10.940;2023-07-08T20:53:50;6.70;;;6.10;;
2854;SDS011;1435;49.472;10.940;2023-07-08T20:58:51;6.77;;;6.10;;
2854;SDS011;1435;49.472;10.940;2023-07-08T21:03:53;5.70;;;5.20;;
2854;SDS011;1435;49.472;10.940;2023-07-08T21:08:56;6.83;;;6.23;;
2854;SDS011;1435;49.472;10.940;2023-07-08T21:13:58;6.53;;;5.97;;
2854;SDS011;1435;49.472;10.940;2023-07-08T21:19:00;7.63;;;6.23;;
2854;SDS011;1435;49.472;10.940;2023-07-08T21:24:04;7.40;;;6.47;;
2854;SDS011;1435;49.472;10.940;2023-07-08T21:29:09;7.17;;;6.07;;
2854;SDS011;1435;49.472;10.940;2023-07-08T21:34:11;7.67;;;6.83;;
2854;SDS011;1435;49.472;10.940;2023-07-08T21:39:16;7.20;;;6.30;;
2854;SDS011;1435;49.472;10.940;2023-07-08T21:44:25;7.77;;;6.70;;
2854;SDS011;1435;49.472;10.940;2023-07-08T21:49:27;7.57;;;6.77;;
2854;SDS011;1435;49.472;10.940;2023-07-08T21:54:30;6.87;;;6.27;;
2854;SDS011;1435;49.472;10.940;2023-07-08T21:59:31;7.90;;;7.10;;
2854;SDS011;1435;49.472;10.940;2023-07-08T22:04:34;12.80;;;7.50;;
2854;SDS011;1435;49.472;10.940;2023-07-08T22:09:38;6.80;;;6.10;;
2854;SDS011;1435;49.472;10.940;2023-07-08T22:14:39;6.70;;;6.10;;
2854;SDS011;1435;49.472;10.940;2023-07-08T22:19:41;8.37;;;7.50;;
2854;SDS011;1435;49.472;10.940;2023-07-08T22:24:44;7.17;;;6.57;;
2854;SDS011;1435;49.472;10.940;2023-07-08T22:29:46;6.77;;;6.23;;
2854;SDS011;1435;49.472;10.940;2023-07-08T22:34:50;8.00;;;7.30;;
2854;SDS011;1435;49.472;10.940;2023-07-08T22:39:53;10.33;;;6.53;;
2854;SDS011;1435;49.472;10.940;2023-07-08T22:44:55;7.60;;;6.90;;
2854;SDS011;1435;49.472;10.940;2023-07-08T22:49:57;7.60;;;6.87;;
2854;SDS011;1435;49.472;10.940;2023-07-08T22:55:02;8.73;;;6.20;;
2854;SDS011;1435;49.472;10.940;2023-07-08T23:00:10;8.07;;;7.23;;
2854;SDS011;1435;49.472;10.940;2023-07-08T23:05:18;8.10;;;7.40;;
2854;SDS011;1435;49.472;10.940;2023-07-08T23:10:25;7.83;;;7.10;;
2854;SDS011;1435;49.472;10.940;2023-07-08T23:15:26;8.10;;;7.30;;
2854;SDS011;1435;49.472;10.940;2023-07-08T23:20:29;8.90;;;7.93;;
2854;SDS011;1435;49.472;10.940;2023-07-08T23:25:31;7.73;;;6.97;;
2854;SDS011;1435;49.472;10.940;2023-07-08T23:30:33;7.63;;;6.80;;
2854;SDS011;1435;49.472;10.940;2023-07-08T23:35:35;7.77;;;7.07;;
2854;SDS011;1435;49.472;10.940;2023-07-08T23:40:38;9.60;;;7.73;;
2854;SDS011;1435;49.472;10.940;2023-07-08T23:45:40;8.50;;;7.70;;
2854;SDS011;1435;49.472;10.940;2023-07-08T23:50:42;7.93;;;7.13;;
2854;SDS011;1435;49.472;10.940;2023-07-08T23:55:45;8.23;;;7.50;;
